sensor_id;sensor_type;location;lat;lon;timestamp;P1;durP1;ratioP1;P2;durP2;ratioP2
25780;SDS011;13626;48.128;11.628;2023-02-26T00:00:08;2.55;;;1.40;;
25780;SDS011;13626;48.128;11.628;2023-02-26T00:02:38;1.77;;;1.55;;
25780;SDS011;13626;48.128;11.628;2023-02-26T00:05:06;1.75;;;1.52;;
25780;SDS011;13626;48.128;11.628;2023-02-26T00:07:33;2.45;;;1.60;;
25780;SDS011;13626;48.128;11.628;2023-02-26T00:10:01;4.75;;;2.78;;
25780;SDS011;13626;48.128;11.628;2023-02-26T00:12:28;2.10;;;1.70;;
25780;SDS011;13626;48.128;11.628;2023-02-26T00:14:56;2.03;;;1.60;;
25780;SDS011;13626;48.128;11.628;2023-02-26T00:20:00;1.88;;;1.58;;
25780;SDS011;13626;48.128;11.628;2023-02-26T00:22:27;1.98;;;1.60;;
25780;SDS011;13626;48.128;11.628;2023-02-26T00:24:54;3.03;;;1.75;;
25780;SDS011;13626;48.128;11.628;2023-02-26T00:27:22;1.67;;;1.50;;
25780;SDS011;13626;48.128;11.628;2023-02-26T00:29:49;3.35;;;1.58;;
25780;SDS011;13626;48.128;11.628;2023-02-26T00:32:16;2.05;;;1.83;;
25780;SDS011;13626;48.128;11.628;2023-02-26T00:34:44;3.00;;;1.70;;
25780;SDS011;13626;48.128;11.628;2023-02-26T00:37:24;1.67;;;1.58;;
25780;SDS011;13626;48.128;11.628;2023-02-26T00:42:27;1.83;;;1.73;;
25780;SDS011;13626;48.128;11.628;2023-02-26T00:44:54;2.47;;;2.05;;
25780;SDS011;13626;48.128;11.628;2023-02-26T00:52:26;2.45;;;1.80;;
25780;SDS011;13626;48.128;11.628;2023-02-26T00:54:54;2.20;;;1.85;;
25780;SDS011;13626;48.128;11.628;2023-02-26T00:57:22;2.00;;;1.80;;
25780;SDS011;13626;48.128;11.628;2023-02-26T00:59:49;6.22;;;2.00;;
25780;SDS011;13626;48.128;11.628;2023-02-26T01:02:16;3.17;;;2.00;;
25780;SDS011;13626;48.128;11.628;2023-02-26T01:04:43;2.35;;;1.90;;
25780;SDS011;13626;48.128;11.628;2023-02-26T01:07:11;1.98;;;1.83;;
25780;SDS011;13626;48.128;11.628;2023-02-26T01:09:39;3.13;;;1.70;;
25780;SDS011;13626;48.128;11.628;2023-02-26T01:12:07;2.50;;;2.00;;
25780;SDS011;13626;48.128;11.628;2023-02-26T01:14:36;2.67;;;1.92;;
25780;SDS011;13626;48.128;11.628;2023-02-26T01:17:18;2.55;;;2.17;;
25780;SDS011;13626;48.128;11.628;2023-02-26T01:19:51;2.50;;;2.30;;
25780;SDS011;13626;48.128;11.628;2023-02-26T01:22:21;1.63;;;1.52;;
25780;SDS011;13626;48.128;11.628;2023-02-26T01:24:50;2.05;;;1.85;;
25780;SDS011;13626;48.128;11.628;2023-02-26T01:27:20;4.45;;;1.83;;
25780;SDS011;13626;48.128;11.628;2023-02-26T01:29:47;2.00;;;1.70;;
25780;SDS011;13626;48.128;11.628;2023-02-26T01:32:16;1.85;;;1.70;;
25780;SDS011;13626;48.128;11.628;2023-02-26T01:34:54;1.70;;;1.60;;
25780;SDS011;13626;48.128;11.628;2023-02-26T01:40:12;1.50;;;1.40;;
25780;SDS011;13626;48.128;11.628;2023-02-26T01:42:42;1.60;;;1.50;;
25780;SDS011;13626;48.128;11.628;2023-02-26T01:45:19;3.65;;;1.63;;
25780;SDS011;13626;48.128;11.628;2023-02-26T01:47:48;1.70;;;1.60;;
25780;SDS011;13626;48.128;11.628;2023-02-26T01:50:18;1.80;;;1.60;;
25780;SDS011;13626;48.128;11.628;2023-02-26T01:55:23;1.70;;;1.52;;
25780;SDS011;13626;48.128;11.628;2023-02-26T01:57:51;2.33;;;1.58;;
25780;SDS011;13626;48.128;11.628;2023-02-26T02:00:20;2.03;;;1.75;;
25780;SDS011;13626;48.128;11.628;2023-02-26T02:02:48;1.80;;;1.58;;
25780;SDS011;13626;48.128;11.628;2023-02-26T02:05:38;1.80;;;1.70;;
25780;SDS011;13626;48.128;11.628;2023-02-26T02:08:06;2.65;;;1.90;;
25780;SDS011;13626;48.128;11.628;2023-02-26T02:10:34;3.00;;;1.60;;
25780;SDS011;13626;48.128;11.628;2023-02-26T02:13:02;2.25;;;2.00;;
25780;SDS011;13626;48.128;11.628;2023-02-26T02:18:07;2.13;;;1.70;;
25780;SDS011;13626;48.128;11.628;2023-02-26T02:20:43;2.30;;;2.08;;
25780;SDS011;13626;48.128;11.628;2023-02-26T02:23:39;2.33;;;1.75;;
25780;SDS011;13626;48.128;11.628;2023-02-26T02:28:45;2.55;;;1.83;;
25780;SDS011;13626;48.128;11.628;2023-02-26T02:31:21;2.75;;;1.98;;
25780;SDS011;13626;48.128;11.628;2023-02-26T02:36:51;2.22;;;1.80;;
25780;SDS011;13626;48.128;11.628;2023-02-26T02:39:22;2.47;;;1.60;;
25780;SDS011;13626;48.128;11.628;2023-02-26T02:41:55;2.70;;;1.58;;
25780;SDS011;13626;48.128;11.628;2023-02-26T02:44:24;1.38;;;1.10;;
25780;SDS011;13626;48.128;11.628;2023-02-26T02:46:53;3.63;;;1.30;;
25780;SDS011;13626;48.128;11.628;2023-02-26T02:49:23;1.95;;;1.20;;
25780;SDS011;13626;48.128;11.628;2023-02-26T02:52:13;1.38;;;1.27;;
25780;SDS011;13626;48.128;11.628;2023-02-26T02:54:40;1.60;;;1.23;;
25780;SDS011;13626;48.128;11.628;2023-02-26T03:00:06;0.88;;;0.88;;
25780;SDS011;13626;48.128;11.628;2023-02-26T03:02:40;3.83;;;1.40;;
25780;SDS011;13626;48.128;11.628;2023-02-26T03:05:09;1.77;;;1.20;;
25780;SDS011;13626;48.128;11.628;2023-02-26T03:07:39;1.65;;;1.15;;
25780;SDS011;13626;48.128;11.628;2023-02-26T03:10:08;2.50;;;1.25;;
25780;SDS011;13626;48.128;11.628;2023-02-26T03:12:36;1.88;;;1.20;;
25780;SDS011;13626;48.128;11.628;2023-02-26T03:15:04;1.75;;;1.13;;
25780;SDS011;13626;48.128;11.628;2023-02-26T03:17:32;4.65;;;2.15;;
25780;SDS011;13626;48.128;11.628;2023-02-26T03:20:12;3.83;;;1.10;;
25780;SDS011;13626;48.128;11.628;2023-02-26T03:25:34;2.08;;;1.08;;
25780;SDS011;13626;48.128;11.628;2023-02-26T03:28:10;3.40;;;1.23;;
25780;SDS011;13626;48.128;11.628;2023-02-26T03:30:39;3.28;;;1.23;;
25780;SDS011;13626;48.128;11.628;2023-02-26T03:33:10;2.38;;;1.27;;
25780;SDS011;13626;48.128;11.628;2023-02-26T03:35:59;2.70;;;1.65;;
25780;SDS011;13626;48.128;11.628;2023-02-26T03:38:38;1.80;;;1.52;;
25780;SDS011;13626;48.128;11.628;2023-02-26T03:41:17;1.83;;;1.42;;
25780;SDS011;13626;48.128;11.628;2023-02-26T03:43:53;2.10;;;1.50;;
25780;SDS011;13626;48.128;11.628;2023-02-26T03:46:23;2.08;;;1.40;;
25780;SDS011;13626;48.128;11.628;2023-02-26T03:48:52;4.80;;;1.40;;
25780;SDS011;13626;48.128;11.628;2023-02-26T03:51:21;3.17;;;1.38;;
25780;SDS011;13626;48.128;11.628;2023-02-26T03:53:52;3.35;;;1.40;;
25780;SDS011;13626;48.128;11.628;2023-02-26T03:56:21;3.47;;;1.38;;
25780;SDS011;13626;48.128;11.628;2023-02-26T03:58:52;1.58;;;1.25;;
25780;SDS011;13626;48.128;11.628;2023-02-26T04:01:21;3.88;;;1.65;;
25780;SDS011;13626;48.128;11.628;2023-02-26T04:03:52;1.95;;;1.30;;
25780;SDS011;13626;48.128;11.628;2023-02-26T04:06:21;4.90;;;1.42;;
25780;SDS011;13626;48.128;11.628;2023-02-26T04:08:49;3.45;;;1.23;;
25780;SDS011;13626;48.128;11.628;2023-02-26T04:11:18;5.10;;;1.63;;
25780;SDS011;13626;48.128;11.628;2023-02-26T04:13:45;1.83;;;1.40;;
25780;SDS011;13626;48.128;11.628;2023-02-26T04:16:13;4.18;;;1.40;;
25780;SDS011;13626;48.128;11.628;2023-02-26T04:18:40;4.25;;;1.52;;
25780;SDS011;13626;48.128;11.628;2023-02-26T04:21:12;3.83;;;1.30;;
25780;SDS011;13626;48.128;11.628;2023-02-26T04:23:40;1.55;;;1.30;;
25780;SDS011;13626;48.128;11.628;2023-02-26T04:26:07;2.83;;;1.20;;
25780;SDS011;13626;48.128;11.628;2023-02-26T04:28:34;3.58;;;1.58;;
25780;SDS011;13626;48.128;11.628;2023-02-26T04:31:06;2.78;;;1.42;;
25780;SDS011;13626;48.128;11.628;2023-02-26T04:33:35;3.22;;;1.50;;
25780;SDS011;13626;48.128;11.628;2023-02-26T04:36:02;4.93;;;1.55;;
25780;SDS011;13626;48.128;11.628;2023-02-26T04:38:30;1.80;;;1.50;;
25780;SDS011;13626;48.128;11.628;2023-02-26T04:40:57;3.70;;;1.83;;
25780;SDS011;13626;48.128;11.628;2023-02-26T04:43:24;3.65;;;1.30;;
25780;SDS011;13626;48.128;11.628;2023-02-26T04:45:51;2.58;;;1.30;;
25780;SDS011;13626;48.128;11.628;2023-02-26T04:48:18;3.30;;;1.65;;
25780;SDS011;13626;48.128;11.628;2023-02-26T04:50:46;3.53;;;1.30;;
25780;SDS011;13626;48.128;11.628;2023-02-26T04:53:13;2.55;;;1.77;;
25780;SDS011;13626;48.128;11.628;2023-02-26T04:55:40;2.08;;;1.50;;
25780;SDS011;13626;48.128;11.628;2023-02-26T04:58:08;3.08;;;1.60;;
25780;SDS011;13626;48.128;11.628;2023-02-26T05:00:35;2.28;;;1.42;;
25780;SDS011;13626;48.128;11.628;2023-02-26T05:03:02;2.80;;;1.30;;
25780;SDS011;13626;48.128;11.628;2023-02-26T05:05:30;5.10;;;1.50;;
25780;SDS011;13626;48.128;11.628;2023-02-26T05:07:57;4.15;;;1.50;;
25780;SDS011;13626;48.128;11.628;2023-02-26T05:10:25;3.63;;;1.40;;
25780;SDS011;13626;48.128;11.628;2023-02-26T05:12:52;5.82;;;1.58;;
25780;SDS011;13626;48.128;11.628;2023-02-26T05:15:19;1.77;;;1.30;;
25780;SDS011;13626;48.128;11.628;2023-02-26T05:17:46;4.75;;;1.60;;
25780;SDS011;13626;48.128;11.628;2023-02-26T05:20:13;4.78;;;1.50;;
25780;SDS011;13626;48.128;11.628;2023-02-26T05:22:40;2.40;;;1.27;;
25780;SDS011;13626;48.128;11.628;2023-02-26T05:25:08;6.43;;;1.80;;
25780;SDS011;13626;48.128;11.628;2023-02-26T05:27:38;3.10;;;1.30;;
25780;SDS011;13626;48.128;11.628;2023-02-26T05:30:06;7.47;;;2.00;;
25780;SDS011;13626;48.128;11.628;2023-02-26T05:32:33;3.88;;;1.35;;
25780;SDS011;13626;48.128;11.628;2023-02-26T05:35:00;3.15;;;1.20;;
25780;SDS011;13626;48.128;11.628;2023-02-26T05:37:27;1.77;;;1.30;;
25780;SDS011;13626;48.128;11.628;2023-02-26T05:39:55;2.25;;;1.50;;
25780;SDS011;13626;48.128;11.628;2023-02-26T05:42:22;2.47;;;1.40;;
25780;SDS011;13626;48.128;11.628;2023-02-26T05:44:50;6.25;;;1.60;;
25780;SDS011;13626;48.128;11.628;2023-02-26T05:47:17;4.13;;;1.67;;
25780;SDS011;13626;48.128;11.628;2023-02-26T05:49:44;4.10;;;1.40;;
25780;SDS011;13626;48.128;11.628;2023-02-26T05:52:11;4.60;;;1.40;;
25780;SDS011;13626;48.128;11.628;2023-02-26T05:54:38;5.75;;;1.60;;
25780;SDS011;13626;48.128;11.628;2023-02-26T05:57:06;5.53;;;1.58;;
25780;SDS011;13626;48.128;11.628;2023-02-26T05:59:33;3.47;;;1.30;;
25780;SDS011;13626;48.128;11.628;2023-02-26T06:02:00;2.30;;;1.70;;
25780;SDS011;13626;48.128;11.628;2023-02-26T06:04:27;2.45;;;1.58;;
25780;SDS011;13626;48.128;11.628;2023-02-26T06:06:55;3.13;;;1.30;;
25780;SDS011;13626;48.128;11.628;2023-02-26T06:09:22;2.17;;;1.33;;
25780;SDS011;13626;48.128;11.628;2023-02-26T06:11:49;2.47;;;1.20;;
25780;SDS011;13626;48.128;11.628;2023-02-26T06:14:16;2.13;;;1.58;;
25780;SDS011;13626;48.128;11.628;2023-02-26T06:16:43;3.75;;;1.33;;
25780;SDS011;13626;48.128;11.628;2023-02-26T06:19:10;4.03;;;1.42;;
25780;SDS011;13626;48.128;11.628;2023-02-26T06:21:38;5.03;;;1.85;;
25780;SDS011;13626;48.128;11.628;2023-02-26T06:24:05;3.63;;;1.63;;
25780;SDS011;13626;48.128;11.628;2023-02-26T06:26:32;2.25;;;1.58;;
25780;SDS011;13626;48.128;11.628;2023-02-26T06:28:59;3.97;;;1.75;;
25780;SDS011;13626;48.128;11.628;2023-02-26T06:31:27;2.72;;;1.40;;
25780;SDS011;13626;48.128;11.628;2023-02-26T06:33:55;4.50;;;1.70;;
25780;SDS011;13626;48.128;11.628;2023-02-26T06:36:23;2.95;;;1.40;;
25780;SDS011;13626;48.128;11.628;2023-02-26T06:38:50;3.75;;;1.60;;
25780;SDS011;13626;48.128;11.628;2023-02-26T06:41:17;5.03;;;1.80;;
25780;SDS011;13626;48.128;11.628;2023-02-26T06:43:45;2.55;;;1.55;;
25780;SDS011;13626;48.128;11.628;2023-02-26T06:46:12;4.13;;;1.50;;
25780;SDS011;13626;48.128;11.628;2023-02-26T06:48:39;4.70;;;1.50;;
25780;SDS011;13626;48.128;11.628;2023-02-26T06:51:06;2.92;;;1.60;;
25780;SDS011;13626;48.128;11.628;2023-02-26T06:53:34;4.72;;;1.30;;
25780;SDS011;13626;48.128;11.628;2023-02-26T06:56:02;5.88;;;1.58;;
25780;SDS011;13626;48.128;11.628;2023-02-26T06:58:29;5.20;;;2.40;;
25780;SDS011;13626;48.128;11.628;2023-02-26T07:00:56;6.07;;;1.65;;
25780;SDS011;13626;48.128;11.628;2023-02-26T07:03:24;5.53;;;1.60;;
25780;SDS011;13626;48.128;11.628;2023-02-26T07:05:51;4.60;;;1.52;;
25780;SDS011;13626;48.128;11.628;2023-02-26T07:08:18;6.75;;;1.95;;
25780;SDS011;13626;48.128;11.628;2023-02-26T07:10:45;2.72;;;1.50;;
25780;SDS011;13626;48.128;11.628;2023-02-26T07:13:15;3.35;;;1.80;;
25780;SDS011;13626;48.128;11.628;2023-02-26T07:15:42;1.83;;;1.33;;
25780;SDS011;13626;48.128;11.628;2023-02-26T07:18:11;4.50;;;1.73;;
25780;SDS011;13626;48.128;11.628;2023-02-26T07:20:38;4.32;;;1.65;;
25780;SDS011;13626;48.128;11.628;2023-02-26T07:23:05;2.33;;;1.63;;
25780;SDS011;13626;48.128;11.628;2023-02-26T07:25:33;2.75;;;1.52;;
25780;SDS011;13626;48.128;11.628;2023-02-26T07:28:00;3.88;;;1.70;;
25780;SDS011;13626;48.128;11.628;2023-02-26T07:30:27;3.40;;;1.80;;
25780;SDS011;13626;48.128;11.628;2023-02-26T07:32:55;1.90;;;1.40;;
25780;SDS011;13626;48.128;11.628;2023-02-26T07:35:22;3.03;;;1.42;;
25780;SDS011;13626;48.128;11.628;2023-02-26T07:37:49;3.90;;;1.67;;
25780;SDS011;13626;48.128;11.628;2023-02-26T07:40:17;4.95;;;1.50;;
25780;SDS011;13626;48.128;11.628;2023-02-26T07:42:44;4.03;;;1.60;;
25780;SDS011;13626;48.128;11.628;2023-02-26T07:45:11;5.13;;;1.65;;
25780;SDS011;13626;48.128;11.628;2023-02-26T07:47:39;3.85;;;1.98;;
25780;SDS011;13626;48.128;11.628;2023-02-26T07:50:06;2.25;;;1.20;;
25780;SDS011;13626;48.128;11.628;2023-02-26T07:52:33;3.85;;;1.75;;
25780;SDS011;13626;48.128;11.628;2023-02-26T07:55:00;2.17;;;1.50;;
25780;SDS011;13626;48.128;11.628;2023-02-26T07:57:28;4.05;;;1.77;;
25780;SDS011;13626;48.128;11.628;2023-02-26T07:59:55;4.32;;;1.92;;
25780;SDS011;13626;48.128;11.628;2023-02-26T08:02:22;2.25;;;1.70;;
25780;SDS011;13626;48.128;11.628;2023-02-26T08:04:49;4.32;;;1.52;;
25780;SDS011;13626;48.128;11.628;2023-02-26T08:07:17;4.05;;;1.95;;
25780;SDS011;13626;48.128;11.628;2023-02-26T08:09:44;2.40;;;1.90;;
25780;SDS011;13626;48.128;11.628;2023-02-26T08:12:11;1.83;;;1.58;;
25780;SDS011;13626;48.128;11.628;2023-02-26T08:14:39;2.35;;;1.95;;
25780;SDS011;13626;48.128;11.628;2023-02-26T08:17:07;3.80;;;1.83;;
25780;SDS011;13626;48.128;11.628;2023-02-26T08:19:34;3.20;;;1.85;;
25780;SDS011;13626;48.128;11.628;2023-02-26T08:22:02;5.55;;;1.98;;
25780;SDS011;13626;48.128;11.628;2023-02-26T08:24:29;2.08;;;1.60;;
25780;SDS011;13626;48.128;11.628;2023-02-26T08:26:56;2.50;;;1.35;;
25780;SDS011;13626;48.128;11.628;2023-02-26T08:29:23;2.22;;;1.60;;
25780;SDS011;13626;48.128;11.628;2023-02-26T08:31:51;4.70;;;1.73;;
25780;SDS011;13626;48.128;11.628;2023-02-26T08:34:18;3.83;;;1.63;;
25780;SDS011;13626;48.128;11.628;2023-02-26T08:36:45;3.15;;;1.80;;
25780;SDS011;13626;48.128;11.628;2023-02-26T08:39:12;2.72;;;1.73;;
25780;SDS011;13626;48.128;11.628;2023-02-26T08:41:39;5.13;;;1.95;;
25780;SDS011;13626;48.128;11.628;2023-02-26T08:44:07;3.38;;;1.83;;
25780;SDS011;13626;48.128;11.628;2023-02-26T08:46:34;3.70;;;1.77;;
25780;SDS011;13626;48.128;11.628;2023-02-26T08:49:01;2.83;;;2.00;;
25780;SDS011;13626;48.128;11.628;2023-02-26T08:51:28;5.03;;;1.83;;
25780;SDS011;13626;48.128;11.628;2023-02-26T08:53:55;2.92;;;1.80;;
25780;SDS011;13626;48.128;11.628;2023-02-26T08:56:23;5.15;;;1.90;;
25780;SDS011;13626;48.128;11.628;2023-02-26T08:58:50;3.05;;;1.83;;
25780;SDS011;13626;48.128;11.628;2023-02-26T09:01:17;4.15;;;2.08;;
25780;SDS011;13626;48.128;11.628;2023-02-26T09:03:45;4.63;;;2.22;;
25780;SDS011;13626;48.128;11.628;2023-02-26T09:06:12;4.93;;;2.10;;
25780;SDS011;13626;48.128;11.628;2023-02-26T09:08:40;3.55;;;2.03;;
25780;SDS011;13626;48.128;11.628;2023-02-26T09:11:07;2.63;;;2.00;;
25780;SDS011;13626;48.128;11.628;2023-02-26T09:13:35;3.08;;;1.92;;
25780;SDS011;13626;48.128;11.628;2023-02-26T09:16:03;3.85;;;2.38;;
25780;SDS011;13626;48.128;11.628;2023-02-26T09:18:30;2.63;;;2.08;;
25780;SDS011;13626;48.128;11.628;2023-02-26T09:20:57;3.45;;;2.15;;
25780;SDS011;13626;48.128;11.628;2023-02-26T09:23:24;2.35;;;1.90;;
25780;SDS011;13626;48.128;11.628;2023-02-26T09:25:52;3.25;;;2.00;;
25780;SDS011;13626;48.128;11.628;2023-02-26T09:28:20;4.07;;;2.30;;
25780;SDS011;13626;48.128;11.628;2023-02-26T09:30:50;4.03;;;3.03;;
25780;SDS011;13626;48.128;11.628;2023-02-26T09:33:18;3.22;;;2.30;;
25780;SDS011;13626;48.128;11.628;2023-02-26T09:35:49;3.72;;;2.20;;
25780;SDS011;13626;48.128;11.628;2023-02-26T09:38:17;2.83;;;2.55;;
25780;SDS011;13626;48.128;11.628;2023-02-26T09:45:55;3.17;;;2.00;;
25780;SDS011;13626;48.128;11.628;2023-02-26T09:48:23;2.67;;;2.05;;
25780;SDS011;13626;48.128;11.628;2023-02-26T09:50:52;3.45;;;1.98;;
25780;SDS011;13626;48.128;11.628;2023-02-26T09:53:22;4.00;;;2.30;;
25780;SDS011;13626;48.128;11.628;2023-02-26T09:55:50;3.85;;;2.05;;
25780;SDS011;13626;48.128;11.628;2023-02-26T10:08:15;5.20;;;2.40;;
25780;SDS011;13626;48.128;11.628;2023-02-26T10:10:47;4.10;;;2.17;;
25780;SDS011;13626;48.128;11.628;2023-02-26T10:14:01;5.85;;;2.63;;
25780;SDS011;13626;48.128;11.628;2023-02-26T10:16:24;3.53;;;2.38;;
25780;SDS011;13626;48.128;11.628;2023-02-26T10:18:57;5.40;;;2.50;;
25780;SDS011;13626;48.128;11.628;2023-02-26T10:21:29;5.03;;;2.50;;
25780;SDS011;13626;48.128;11.628;2023-02-26T10:23:59;4.57;;;2.65;;
25780;SDS011;13626;48.128;11.628;2023-02-26T10:26:32;4.15;;;2.90;;
25780;SDS011;13626;48.128;11.628;2023-02-26T10:31:31;4.03;;;3.00;;
25780;SDS011;13626;48.128;11.628;2023-02-26T10:37:10;2.90;;;2.38;;
25780;SDS011;13626;48.128;11.628;2023-02-26T10:42:16;3.08;;;2.38;;
25780;SDS011;13626;48.128;11.628;2023-02-26T10:45:02;2.88;;;2.20;;
25780;SDS011;13626;48.128;11.628;2023-02-26T10:47:36;2.13;;;1.92;;
25780;SDS011;13626;48.128;11.628;2023-02-26T10:50:11;3.10;;;2.58;;
25780;SDS011;13626;48.128;11.628;2023-02-26T10:52:39;3.65;;;2.30;;
25780;SDS011;13626;48.128;11.628;2023-02-26T10:57:58;5.72;;;2.97;;
25780;SDS011;13626;48.128;11.628;2023-02-26T11:00:26;3.42;;;2.30;;
25780;SDS011;13626;48.128;11.628;2023-02-26T11:02:53;5.20;;;2.70;;
25780;SDS011;13626;48.128;11.628;2023-02-26T11:05:22;2.90;;;2.40;;
25780;SDS011;13626;48.128;11.628;2023-02-26T11:07:51;2.40;;;2.20;;
25780;SDS011;13626;48.128;11.628;2023-02-26T11:10:22;3.33;;;2.22;;
25780;SDS011;13626;48.128;11.628;2023-02-26T11:12:50;2.55;;;2.30;;
25780;SDS011;13626;48.128;11.628;2023-02-26T11:15:19;2.67;;;2.42;;
25780;SDS011;13626;48.128;11.628;2023-02-26T11:17:47;2.65;;;2.35;;
25780;SDS011;13626;48.128;11.628;2023-02-26T11:20:19;4.35;;;2.50;;
25780;SDS011;13626;48.128;11.628;2023-02-26T11:22:51;3.08;;;2.30;;
25780;SDS011;13626;48.128;11.628;2023-02-26T11:25:21;2.58;;;2.38;;
25780;SDS011;13626;48.128;11.628;2023-02-26T11:27:49;2.92;;;2.33;;
25780;SDS011;13626;48.128;11.628;2023-02-26T11:30:19;3.22;;;2.40;;
25780;SDS011;13626;48.128;11.628;2023-02-26T11:32:50;3.13;;;2.78;;
25780;SDS011;13626;48.128;11.628;2023-02-26T11:35:19;4.13;;;2.95;;
25780;SDS011;13626;48.128;11.628;2023-02-26T11:37:51;3.05;;;2.75;;
25780;SDS011;13626;48.128;11.628;2023-02-26T11:40:22;3.33;;;3.00;;
25780;SDS011;13626;48.128;11.628;2023-02-26T11:42:54;3.30;;;2.70;;
25780;SDS011;13626;48.128;11.628;2023-02-26T11:45:21;2.88;;;2.53;;
25780;SDS011;13626;48.128;11.628;2023-02-26T11:47:52;2.90;;;2.60;;
25780;SDS011;13626;48.128;11.628;2023-02-26T11:50:22;3.75;;;2.83;;
25780;SDS011;13626;48.128;11.628;2023-02-26T11:52:54;5.10;;;3.10;;
25780;SDS011;13626;48.128;11.628;2023-02-26T11:55:26;3.10;;;2.38;;
25780;SDS011;13626;48.128;11.628;2023-02-26T11:57:54;5.18;;;2.78;;
25780;SDS011;13626;48.128;11.628;2023-02-26T12:00:32;3.13;;;2.80;;
25780;SDS011;13626;48.128;11.628;2023-02-26T12:03:03;3.00;;;2.70;;
25780;SDS011;13626;48.128;11.628;2023-02-26T12:05:32;3.03;;;2.30;;
25780;SDS011;13626;48.128;11.628;2023-02-26T12:07:59;3.25;;;2.20;;
25780;SDS011;13626;48.128;11.628;2023-02-26T12:10:30;3.75;;;2.22;;
25780;SDS011;13626;48.128;11.628;2023-02-26T12:13:02;2.53;;;2.17;;
25780;SDS011;13626;48.128;11.628;2023-02-26T12:18:13;2.10;;;1.92;;
25780;SDS011;13626;48.128;11.628;2023-02-26T12:23:30;4.13;;;2.22;;
25780;SDS011;13626;48.128;11.628;2023-02-26T12:57:28;1.80;;;1.70;;
25780;SDS011;13626;48.128;11.628;2023-02-26T13:20:34;2.58;;;1.40;;
25780;SDS011;13626;48.128;11.628;2023-02-26T13:25:44;1.77;;;1.67;;
25780;SDS011;13626;48.128;11.628;2023-02-26T13:30:54;2.25;;;1.83;;
25780;SDS011;13626;48.128;11.628;2023-02-26T13:33:23;2.05;;;1.58;;
25780;SDS011;13626;48.128;11.628;2023-02-26T13:35:53;1.60;;;1.50;;
25780;SDS011;13626;48.128;11.628;2023-02-26T13:38:31;1.70;;;1.50;;
25780;SDS011;13626;48.128;11.628;2023-02-26T13:41:15;2.45;;;1.77;;
25780;SDS011;13626;48.128;11.628;2023-02-26T13:51:34;1.75;;;1.65;;
25780;SDS011;13626;48.128;11.628;2023-02-26T13:54:07;3.08;;;2.20;;
25780;SDS011;13626;48.128;11.628;2023-02-26T14:01:46;3.17;;;2.38;;
25780;SDS011;13626;48.128;11.628;2023-02-26T14:06:51;3.15;;;1.80;;
25780;SDS011;13626;48.128;11.628;2023-02-26T14:16:49;1.50;;;1.40;;
25780;SDS011;13626;48.128;11.628;2023-02-26T14:20:07;1.77;;;1.38;;
25780;SDS011;13626;48.128;11.628;2023-02-26T14:22:19;2.03;;;1.52;;
25780;SDS011;13626;48.128;11.628;2023-02-26T14:24:52;1.65;;;1.40;;
25780;SDS011;13626;48.128;11.628;2023-02-26T14:27:22;2.10;;;1.90;;
25780;SDS011;13626;48.128;11.628;2023-02-26T14:32:30;6.07;;;1.67;;
25780;SDS011;13626;48.128;11.628;2023-02-26T14:35:20;2.20;;;1.70;;
25780;SDS011;13626;48.128;11.628;2023-02-26T14:37:54;1.75;;;1.58;;
25780;SDS011;13626;48.128;11.628;2023-02-26T14:40:23;2.25;;;1.98;;
25780;SDS011;13626;48.128;11.628;2023-02-26T14:42:52;2.97;;;1.80;;
25780;SDS011;13626;48.128;11.628;2023-02-26T14:47:47;4.45;;;2.13;;
25780;SDS011;13626;48.128;11.628;2023-02-26T14:50:17;3.38;;;2.15;;
25780;SDS011;13626;48.128;11.628;2023-02-26T15:16:45;2.50;;;1.67;;
25780;SDS011;13626;48.128;11.628;2023-02-26T15:19:18;3.63;;;1.83;;
25780;SDS011;13626;48.128;11.628;2023-02-26T15:21:57;3.90;;;1.90;;
25780;SDS011;13626;48.128;11.628;2023-02-26T15:24:27;2.67;;;1.83;;
25780;SDS011;13626;48.128;11.628;2023-02-26T15:27:01;2.28;;;1.60;;
25780;SDS011;13626;48.128;11.628;2023-02-26T15:29:30;2.75;;;1.95;;
25780;SDS011;13626;48.128;11.628;2023-02-26T15:31:59;3.47;;;2.05;;
25780;SDS011;13626;48.128;11.628;2023-02-26T15:34:28;2.65;;;1.70;;
25780;SDS011;13626;48.128;11.628;2023-02-26T15:36:56;3.83;;;2.22;;
25780;SDS011;13626;48.128;11.628;2023-02-26T15:39:24;6.18;;;2.42;;
25780;SDS011;13626;48.128;11.628;2023-02-26T15:41:52;3.22;;;1.85;;
25780;SDS011;13626;48.128;11.628;2023-02-26T15:44:21;4.18;;;1.80;;
25780;SDS011;13626;48.128;11.628;2023-02-26T15:46:52;2.92;;;2.20;;
25780;SDS011;13626;48.128;11.628;2023-02-26T15:49:40;2.33;;;2.10;;
25780;SDS011;13626;48.128;11.628;2023-02-26T15:52:10;2.72;;;2.08;;
25780;SDS011;13626;48.128;11.628;2023-02-26T15:54:39;3.50;;;2.25;;
25780;SDS011;13626;48.128;11.628;2023-02-26T15:57:08;3.13;;;2.30;;
25780;SDS011;13626;48.128;11.628;2023-02-26T15:59:36;4.97;;;2.13;;
25780;SDS011;13626;48.128;11.628;2023-02-26T16:02:09;4.80;;;2.30;;
25780;SDS011;13626;48.128;11.628;2023-02-26T16:04:37;3.28;;;2.20;;
25780;SDS011;13626;48.128;11.628;2023-02-26T16:07:04;5.07;;;2.53;;
25780;SDS011;13626;48.128;11.628;2023-02-26T16:09:35;2.55;;;2.10;;
25780;SDS011;13626;48.128;11.628;2023-02-26T16:12:08;4.78;;;2.47;;
25780;SDS011;13626;48.128;11.628;2023-02-26T16:14:37;3.40;;;2.42;;
25780;SDS011;13626;48.128;11.628;2023-02-26T16:17:06;3.60;;;2.85;;
25780;SDS011;13626;48.128;11.628;2023-02-26T16:19:41;4.75;;;2.95;;
25780;SDS011;13626;48.128;11.628;2023-02-26T16:22:29;3.42;;;2.50;;
25780;SDS011;13626;48.128;11.628;2023-02-26T16:25:00;12.30;;;2.58;;
25780;SDS011;13626;48.128;11.628;2023-02-26T16:27:28;3.95;;;2.58;;
25780;SDS011;13626;48.128;11.628;2023-02-26T16:29:57;3.33;;;1.85;;
25780;SDS011;13626;48.128;11.628;2023-02-26T16:32:25;1.95;;;1.60;;
25780;SDS011;13626;48.128;11.628;2023-02-26T16:34:55;2.33;;;1.55;;
25780;SDS011;13626;48.128;11.628;2023-02-26T16:37:30;2.00;;;1.77;;
25780;SDS011;13626;48.128;11.628;2023-02-26T16:40:11;1.85;;;1.50;;
25780;SDS011;13626;48.128;11.628;2023-02-26T16:47:57;2.03;;;1.45;;
25780;SDS011;13626;48.128;11.628;2023-02-26T16:50:25;2.42;;;1.55;;
25780;SDS011;13626;48.128;11.628;2023-02-26T16:55:30;3.22;;;1.75;;
25780;SDS011;13626;48.128;11.628;2023-02-26T16:57:59;1.80;;;1.63;;
25780;SDS011;13626;48.128;11.628;2023-02-26T17:00:32;2.20;;;1.50;;
25780;SDS011;13626;48.128;11.628;2023-02-26T17:03:08;4.05;;;2.05;;
25780;SDS011;13626;48.128;11.628;2023-02-26T17:05:35;3.17;;;2.00;;
25780;SDS011;13626;48.128;11.628;2023-02-26T17:08:13;3.30;;;1.77;;
25780;SDS011;13626;48.128;11.628;2023-02-26T17:10:46;2.85;;;1.98;;
25780;SDS011;13626;48.128;11.628;2023-02-26T17:15:41;3.30;;;2.03;;
25780;SDS011;13626;48.128;11.628;2023-02-26T17:18:08;2.60;;;1.83;;
25780;SDS011;13626;48.128;11.628;2023-02-26T17:20:35;3.45;;;2.10;;
25780;SDS011;13626;48.128;11.628;2023-02-26T17:23:04;6.57;;;2.25;;
25780;SDS011;13626;48.128;11.628;2023-02-26T17:25:35;3.45;;;2.42;;
25780;SDS011;13626;48.128;11.628;2023-02-26T17:28:02;2.72;;;2.33;;
25780;SDS011;13626;48.128;11.628;2023-02-26T17:30:30;5.50;;;2.20;;
25780;SDS011;13626;48.128;11.628;2023-02-26T17:33:01;3.25;;;2.08;;
25780;SDS011;13626;48.128;11.628;2023-02-26T17:35:30;2.50;;;2.00;;
25780;SDS011;13626;48.128;11.628;2023-02-26T17:37:57;2.65;;;1.92;;
25780;SDS011;13626;48.128;11.628;2023-02-26T17:40:29;2.67;;;1.95;;
25780;SDS011;13626;48.128;11.628;2023-02-26T17:42:57;3.47;;;1.77;;
25780;SDS011;13626;48.128;11.628;2023-02-26T17:45:25;2.35;;;1.70;;
25780;SDS011;13626;48.128;11.628;2023-02-26T17:47:52;2.97;;;2.00;;